Time;durP1;ratioP1;P1;durP2;ratioP2;P2;SDS_P1;SDS_P2;PMS_P1;PMS_P2;Temp;Humidity;BMP_temperature;BMP_pressure;BME280_temperature;BME280_humidity;BME280_pressure;Samples;Min_cycle;Max_cycle;Signal;HPM_P1;HPM_P2
2023/05/28 00:00:13;;;;;;;13.38;5.53;;;;;;;;;;6282739;22;20011;-82
2023/05/28 00:02:39;;;;;;;9.70;4.78;;;;;;;;;;6282513;22;20015;-82
2023/05/28 00:05:06;;;;;;;16.48;5.32;;;;;;;;;;6282202;22;20015;-82
2023/05/28 00:07:32;;;;;;;16.17;6.43;;;;;;;;;;6308266;22;20051;-82
2023/05/28 00:09:58;;;;;;;10.98;4.75;;;;;;;;;;6282571;22;20019;-82
2023/05/28 00:12:25;;;;;;;11.18;5.22;;;;;;;;;;6307836;22;20015;-82
2023/05/28 00:14:51;;;;;;;13.35;5.25;;;;;;;;;;6281850;22;20026;-82
2023/05/28 00:17:17;;;;;;;15.57;6.15;;;;;;;;;;6283091;22;20023;-82
2023/05/28 00:19:43;;;;;;;11.15;4.80;;;;;;;;;;6282064;22;20437;-81
2023/05/28 00:22:10;;;;;;;13.20;5.50;;;;;;;;;;6307829;22;20017;-81
2023/05/28 00:24:36;;;;;;;11.60;4.82;;;;;;;;;;6281990;22;20022;-82
2023/05/28 00:27:03;;;;;;;10.77;4.75;;;;;;;;;;6307982;22;20094;-82
2023/05/28 00:29:29;;;;;;;10.45;4.95;;;;;;;;;;6281872;22;20019;-82
2023/05/28 00:31:56;;;;;;;13.90;5.88;;;;;;;;;;6307696;22;20026;-81
2023/05/28 00:34:25;;;;;;;15.00;5.93;;;;;;;;;;6307766;22;20065;-82
2023/05/28 00:36:53;;;;;;;13.70;5.40;;;;;;;;;;6307978;22;20345;-83
2023/05/28 00:39:19;;;;;;;12.73;5.43;;;;;;;;;;6307628;22;20011;-82
2023/05/28 00:41:45;;;;;;;10.05;4.80;;;;;;;;;;6307570;22;20022;-82
2023/05/28 00:44:12;;;;;;;10.73;5.47;;;;;;;;;;6282112;22;20057;-82
2023/05/28 00:46:41;;;;;;;15.90;5.75;;;;;;;;;;6281435;22;20050;-83
2023/05/28 00:49:07;;;;;;;12.00;5.10;;;;;;;;;;6281752;22;20445;-83
2023/05/28 00:51:35;;;;;;;10.65;5.03;;;;;;;;;;6308305;22;20076;-82
2023/05/28 00:54:02;;;;;;;10.43;5.22;;;;;;;;;;6307569;22;20011;-82
2023/05/28 00:56:29;;;;;;;14.70;6.18;;;;;;;;;;6308597;22;20022;-82
2023/05/28 00:58:55;;;;;;;12.43;5.35;;;;;;;;;;6308403;22;20421;-82
2023/05/28 01:01:23;;;;;;;11.52;5.32;;;;;;;;;;6307513;22;20034;-82
2023/05/28 01:03:49;;;;;;;12.90;5.18;;;;;;;;;;6307441;22;20445;-82
2023/05/28 01:06:15;;;;;;;11.25;5.25;;;;;;;;;;6281832;22;20098;-82
2023/05/28 01:08:41;;;;;;;11.32;5.40;;;;;;;;;;6307434;22;20016;-82
2023/05/28 01:11:10;;;;;;;12.82;5.15;;;;;;;;;;6281909;22;20102;-82
2023/05/28 01:13:36;;;;;;;14.70;5.75;;;;;;;;;;6281655;22;20019;-82
2023/05/28 01:16:02;;;;;;;14.73;5.93;;;;;;;;;;6280999;22;20061;-82
2023/05/28 01:18:28;;;;;;;12.52;6.18;;;;;;;;;;6281746;22;20080;-82
2023/05/28 01:20:55;;;;;;;12.00;5.05;;;;;;;;;;6281682;22;20098;-82
2023/05/28 01:23:22;;;;;;;11.77;5.93;;;;;;;;;;6307461;22;20027;-82
2023/05/28 01:25:52;;;;;;;12.30;5.90;;;;;;;;;;6307275;22;20019;-82
2023/05/28 01:28:18;;;;;;;11.00;5.43;;;;;;;;;;6281743;22;20018;-82
2023/05/28 01:30:45;;;;;;;11.55;5.30;;;;;;;;;;6281574;22;20063;-82
2023/05/28 01:33:12;;;;;;;12.10;6.18;;;;;;;;;;6307246;22;20430;-82
2023/05/28 01:35:39;;;;;;;10.68;5.82;;;;;;;;;;6282382;22;20024;-82
2023/05/28 01:38:05;;;;;;;10.25;5.68;;;;;;;;;;6306994;22;20015;-83
2023/05/28 01:40:31;;;;;;;13.73;6.07;;;;;;;;;;6307934;22;20026;-82
2023/05/28 01:42:58;;;;;;;14.05;6.38;;;;;;;;;;6281412;22;20023;-82
2023/05/28 01:45:24;;;;;;;10.20;5.32;;;;;;;;;;6308042;22;20015;-82
2023/05/28 01:47:51;;;;;;;9.25;5.45;;;;;;;;;;6282278;22;20295;-82
2023/05/28 01:50:17;;;;;;;7.97;5.13;;;;;;;;;;6306963;22;20019;-82
2023/05/28 01:52:44;;;;;;;8.45;5.30;;;;;;;;;;6306976;22;20011;-82
2023/05/28 01:55:11;;;;;;;12.68;6.03;;;;;;;;;;6281139;22;20019;-82
2023/05/28 01:57:38;;;;;;;11.05;5.53;;;;;;;;;;6280744;22;20023;-82
2023/05/28 02:00:05;;;;;;;13.02;6.18;;;;;;;;;;6306957;22;20012;-82
2023/05/28 02:02:31;;;;;;;9.10;5.15;;;;;;;;;;6281474;22;20019;-82
2023/05/28 02:04:57;;;;;;;12.38;5.63;;;;;;;;;;6281178;22;20012;-82
2023/05/28 02:07:23;;;;;;;12.32;6.05;;;;;;;;;;6307050;22;20015;-82
2023/05/28 02:09:50;;;;;;;14.88;6.47;;;;;;;;;;6306742;22;20037;-82
2023/05/28 02:12:16;;;;;;;11.32;5.55;;;;;;;;;;6281684;22;20314;-82
2023/05/28 02:14:42;;;;;;;12.57;5.32;;;;;;;;;;6280728;22;20444;-82
2023/05/28 02:17:09;;;;;;;10.60;5.55;;;;;;;;;;6306997;22;20015;-81
2023/05/28 02:19:35;;;;;;;10.35;5.40;;;;;;;;;;6281886;22;20380;-82
2023/05/28 02:22:03;;;;;;;9.30;5.57;;;;;;;;;;6306654;22;20446;-81
2023/05/28 02:24:30;;;;;;;8.98;6.03;;;;;;;;;;6306603;22;20019;-81
2023/05/28 02:26:56;;;;;;;11.45;5.40;;;;;;;;;;6307659;22;20041;-82
2023/05/28 02:29:22;;;;;;;11.15;5.32;;;;;;;;;;6280924;22;20015;-82
2023/05/28 02:31:48;;;;;;;13.20;5.60;;;;;;;;;;6280827;22;20051;-82
2023/05/28 02:34:14;;;;;;;9.77;5.60;;;;;;;;;;6280823;22;20022;-82
2023/05/28 02:36:40;;;;;;;12.07;5.90;;;;;;;;;;6280878;22;20015;-81
2023/05/28 02:39:07;;;;;;;13.02;5.75;;;;;;;;;;6281091;22;20179;-82
2023/05/28 02:41:33;;;;;;;12.57;5.85;;;;;;;;;;6280701;22;20067;-81
2023/05/28 02:43:59;;;;;;;11.73;6.13;;;;;;;;;;6280407;22;20027;-82
2023/05/28 02:46:25;;;;;;;10.18;5.82;;;;;;;;;;6280951;22;20449;-81
2023/05/28 02:48:51;;;;;;;11.43;6.18;;;;;;;;;;6306095;22;20070;-82
2023/05/28 02:51:17;;;;;;;12.75;6.32;;;;;;;;;;6306119;22;20069;-81
2023/05/28 02:53:43;;;;;;;12.35;6.45;;;;;;;;;;6280742;22;20472;-81
2023/05/28 02:56:09;;;;;;;14.48;7.00;;;;;;;;;;6280566;22;20019;-81
2023/05/28 02:58:36;;;;;;;10.60;5.70;;;;;;;;;;6280555;22;20094;-81
2023/05/28 03:01:02;;;;;;;10.75;6.03;;;;;;;;;;6281599;22;20021;-82
2023/05/28 03:03:28;;;;;;;16.15;7.10;;;;;;;;;;6306782;22;20018;-81
2023/05/28 03:05:55;;;;;;;13.05;6.43;;;;;;;;;;6306653;22;20015;-81
2023/05/28 03:08:21;;;;;;;14.10;7.03;;;;;;;;;;6307253;22;20026;-82
2023/05/28 03:10:47;;;;;;;12.93;6.72;;;;;;;;;;6281798;22;20360;-81
2023/05/28 03:13:13;;;;;;;12.60;6.82;;;;;;;;;;6306375;22;20015;-81
2023/05/28 03:15:39;;;;;;;10.48;6.30;;;;;;;;;;6280382;22;20026;-81
2023/05/28 03:18:06;;;;;;;11.80;7.28;;;;;;;;;;6281135;22;20015;-82
2023/05/28 03:20:32;;;;;;;14.05;6.53;;;;;;;;;;6280947;22;20449;-81
2023/05/28 03:22:59;;;;;;;10.85;6.88;;;;;;;;;;6280922;22;20311;-81
2023/05/28 03:25:25;;;;;;;16.17;7.45;;;;;;;;;;6308168;22;20019;-82
2023/05/28 03:27:52;;;;;;;17.55;7.68;;;;;;;;;;6308339;22;20019;-81
2023/05/28 03:30:18;;;;;;;11.20;6.57;;;;;;;;;;6308700;22;20100;-81
2023/05/28 03:32:44;;;;;;;11.55;7.45;;;;;;;;;;6308029;22;20015;-82
2023/05/28 03:35:11;;;;;;;12.52;6.53;;;;;;;;;;6309238;22;20372;-82
2023/05/28 03:37:37;;;;;;;14.23;7.72;;;;;;;;;;6282131;22;20116;-82
2023/05/28 03:40:04;;;;;;;13.75;7.63;;;;;;;;;;6308137;22;20011;-82
2023/05/28 03:42:30;;;;;;;16.95;7.85;;;;;;;;;;6283409;22;20026;-82
2023/05/28 03:44:56;;;;;;;12.98;6.28;;;;;;;;;;6282333;22;20094;-81
2023/05/28 03:47:24;;;;;;;11.75;6.80;;;;;;;;;;6308195;22;20022;-81
2023/05/28 03:49:50;;;;;;;12.68;7.45;;;;;;;;;;6308157;22;20019;-82
2023/05/28 03:52:16;;;;;;;15.35;7.63;;;;;;;;;;6282239;22;20483;-82
2023/05/28 03:54:42;;;;;;;12.45;6.30;;;;;;;;;;6307930;22;20457;-82
2023/05/28 03:57:08;;;;;;;13.32;7.57;;;;;;;;;;6308134;22;20383;-81
2023/05/28 03:59:34;;;;;;;14.75;6.90;;;;;;;;;;6282184;22;20015;-81
2023/05/28 04:02:00;;;;;;;15.25;7.70;;;;;;;;;;6282477;22;20012;-81
2023/05/28 04:04:26;;;;;;;12.77;6.72;;;;;;;;;;6282605;22;20030;-81
2023/05/28 04:06:53;;;;;;;13.20;6.70;;;;;;;;;;6282586;22;20026;-81
2023/05/28 04:09:19;;;;;;;13.70;6.50;;;;;;;;;;6281779;22;20113;-81
2023/05/28 04:11:45;;;;;;;14.50;6.60;;;;;;;;;;6282372;22;20034;-82
2023/05/28 04:14:11;;;;;;;15.30;7.32;;;;;;;;;;6307536;22;20026;-81
2023/05/28 04:16:37;;;;;;;12.38;7.03;;;;;;;;;;6308052;22;20073;-81
2023/05/28 04:19:04;;;;;;;13.80;7.13;;;;;;;;;;6307808;22;20123;-81
2023/05/28 04:21:30;;;;;;;13.68;7.55;;;;;;;;;;6308191;22;20433;-81
2023/05/28 04:23:56;;;;;;;10.95;7.18;;;;;;;;;;6308154;22;20016;-81
2023/05/28 04:26:22;;;;;;;11.18;6.22;;;;;;;;;;6307922;22;20015;-81
2023/05/28 04:28:49;;;;;;;15.05;7.57;;;;;;;;;;6307747;22;20390;-81
2023/05/28 04:31:15;;;;;;;11.63;6.97;;;;;;;;;;6282078;22;20098;-81
2023/05/28 04:33:41;;;;;;;12.43;7.07;;;;;;;;;;6282118;22;20072;-82
2023/05/28 04:36:08;;;;;;;14.43;7.07;;;;;;;;;;6282741;22;20061;-82
2023/05/28 04:38:34;;;;;;;12.52;6.68;;;;;;;;;;6281681;22;20430;-82
2023/05/28 04:41:03;;;;;;;14.77;7.00;;;;;;;;;;6308044;22;20330;-82
2023/05/28 04:43:29;;;;;;;12.90;6.60;;;;;;;;;;6307752;22;20012;-83
2023/05/28 04:45:58;;;;;;;11.40;6.20;;;;;;;;;;6307503;22;20438;-82
2023/05/28 04:48:25;;;;;;;11.98;7.30;;;;;;;;;;6307138;22;20068;-83
2023/05/28 04:50:51;;;;;;;12.93;6.65;;;;;;;;;;6282186;22;20012;-83
2023/05/28 04:53:17;;;;;;;12.38;6.38;;;;;;;;;;6307699;22;20022;-82
2023/05/28 04:55:44;;;;;;;15.90;6.45;;;;;;;;;;6281681;22;20089;-83
2023/05/28 04:58:10;;;;;;;12.50;6.57;;;;;;;;;;6282732;22;20099;-83
2023/05/28 05:00:36;;;;;;;11.45;6.50;;;;;;;;;;6281456;22;20022;-82
2023/05/28 05:03:02;;;;;;;14.13;6.40;;;;;;;;;;6281632;22;20023;-82
2023/05/28 05:05:28;;;;;;;11.80;6.18;;;;;;;;;;6281776;22;20038;-82
2023/05/28 05:07:54;;;;;;;16.85;6.95;;;;;;;;;;6282188;22;20098;-83
2023/05/28 05:10:20;;;;;;;17.02;6.97;;;;;;;;;;6282764;22;20023;-82
2023/05/28 05:12:46;;;;;;;14.55;7.57;;;;;;;;;;6307442;22;20026;-82
2023/05/28 05:15:13;;;;;;;12.63;6.78;;;;;;;;;;6281542;22;20090;-82
2023/05/28 05:17:39;;;;;;;18.92;7.20;;;;;;;;;;6308277;22;20380;-82
2023/05/28 05:20:06;;;;;;;13.43;7.00;;;;;;;;;;6307483;22;20019;-82
2023/05/28 05:22:32;;;;;;;13.60;6.43;;;;;;;;;;6281604;22;20019;-82
2023/05/28 05:24:58;;;;;;;11.50;6.10;;;;;;;;;;6281253;22;20026;-82
2023/05/28 05:27:24;;;;;;;14.07;6.40;;;;;;;;;;6281682;22;20011;-89
2023/05/28 05:29:51;;;;;;;11.70;5.65;;;;;;;;;;6281812;22;20011;-86
2023/05/28 05:32:17;;;;;;;14.95;6.57;;;;;;;;;;6281837;22;20030;-82
2023/05/28 05:34:43;;;;;;;12.27;6.72;;;;;;;;;;6281896;22;20102;-82
2023/05/28 05:37:10;;;;;;;13.07;5.95;;;;;;;;;;6281695;22;20019;-81
2023/05/28 05:39:36;;;;;;;17.23;6.90;;;;;;;;;;6281673;22;20019;-82
2023/05/28 05:42:02;;;;;;;13.77;7.07;;;;;;;;;;6281464;22;20023;-82
2023/05/28 05:44:28;;;;;;;17.10;7.35;;;;;;;;;;6307206;22;20022;-82
2023/05/28 05:46:54;;;;;;;15.75;7.20;;;;;;;;;;6281127;22;20095;-82
2023/05/28 05:49:20;;;;;;;12.20;6.95;;;;;;;;;;6281576;22;20103;-83
2023/05/28 05:51:46;;;;;;;15.93;7.82;;;;;;;;;;6307139;22;20452;-82
2023/05/28 05:54:12;;;;;;;10.80;6.80;;;;;;;;;;6282403;22;20117;-83
2023/05/28 05:56:39;;;;;;;17.48;6.45;;;;;;;;;;6281723;22;20022;-82
2023/05/28 05:59:05;;;;;;;10.13;6.68;;;;;;;;;;6306967;22;20491;-82
2023/05/28 06:01:32;;;;;;;15.73;6.88;;;;;;;;;;6281360;22;20011;-83
2023/05/28 06:03:58;;;;;;;15.85;6.85;;;;;;;;;;6307976;22;20033;-82
2023/05/28 06:06:24;;;;;;;15.05;6.65;;;;;;;;;;6281218;22;20015;-82
2023/05/28 06:08:50;;;;;;;13.60;6.70;;;;;;;;;;6281135;22;20051;-83
2023/05/28 06:11:16;;;;;;;15.52;6.93;;;;;;;;;;6306965;22;20015;-83
2023/05/28 06:13:43;;;;;;;11.90;6.35;;;;;;;;;;6307272;22;20015;-83
2023/05/28 06:16:10;;;;;;;11.55;6.38;;;;;;;;;;6307017;22;20369;-83
2023/05/28 06:18:36;;;;;;;12.35;6.10;;;;;;;;;;6280941;22;20026;-83
2023/05/28 06:21:03;;;;;;;10.10;5.57;;;;;;;;;;6281127;22;20485;-83
2023/05/28 06:23:29;;;;;;;12.13;5.80;;;;;;;;;;6306834;22;20094;-83
2023/05/28 06:25:55;;;;;;;9.32;4.97;;;;;;;;;;6281402;22;20073;-83
2023/05/28 06:28:21;;;;;;;11.35;5.75;;;;;;;;;;6307164;22;20015;-83
2023/05/28 06:30:47;;;;;;;10.50;5.07;;;;;;;;;;6280990;22;20057;-83
2023/05/28 06:33:14;;;;;;;10.65;5.38;;;;;;;;;;6281295;22;20104;-84
2023/05/28 06:35:40;;;;;;;7.75;4.68;;;;;;;;;;6280939;22;20026;-83
2023/05/28 06:38:06;;;;;;;11.75;5.38;;;;;;;;;;6280865;22;20506;-80
2023/05/28 06:40:32;;;;;;;11.77;5.43;;;;;;;;;;6280977;22;20080;-84
2023/05/28 06:43:00;;;;;;;12.10;5.13;;;;;;;;;;6281597;22;20023;-83
2023/05/28 06:45:27;;;;;;;12.35;5.15;;;;;;;;;;6307078;22;20019;-84
2023/05/28 06:47:54;;;;;;;11.25;4.88;;;;;;;;;;6280829;22;20337;-83
2023/05/28 06:50:20;;;;;;;8.80;4.30;;;;;;;;;;6281799;22;20026;-84
2023/05/28 06:52:46;;;;;;;10.38;4.65;;;;;;;;;;6306579;22;20461;-84
2023/05/28 06:55:12;;;;;;;9.90;4.63;;;;;;;;;;6281147;22;20310;-84
2023/05/28 06:57:38;;;;;;;12.23;5.20;;;;;;;;;;6281843;22;20022;-84
2023/05/28 07:00:22;;;;;;;13.57;5.03;;;;;;;;;;6280854;22;20057;-84
2023/05/28 07:02:48;;;;;;;10.48;4.30;;;;;;;;;;6307593;22;20023;-83
2023/05/28 07:05:15;;;;;;;9.57;4.40;;;;;;;;;;6280881;22;20015;-83
2023/05/28 07:07:41;;;;;;;8.18;4.32;;;;;;;;;;6280751;22;20015;-84
2023/05/28 07:10:08;;;;;;;8.43;4.53;;;;;;;;;;6306561;22;20069;-84
2023/05/28 07:12:34;;;;;;;12.25;4.82;;;;;;;;;;6280647;22;20053;-84
2023/05/28 07:15:00;;;;;;;9.60;4.25;;;;;;;;;;6306436;22;20430;-84
2023/05/28 07:17:26;;;;;;;10.88;4.13;;;;;;;;;;6307415;22;20027;-84
2023/05/28 07:19:53;;;;;;;9.23;4.63;;;;;;;;;;6281774;22;20011;-84
2023/05/28 07:22:19;;;;;;;10.25;4.22;;;;;;;;;;6306497;22;20019;-85
2023/05/28 07:24:45;;;;;;;7.68;4.45;;;;;;;;;;6281074;22;20015;-84
2023/05/28 07:27:11;;;;;;;13.40;4.63;;;;;;;;;;6306805;22;20145;-85
2023/05/28 07:29:37;;;;;;;8.63;3.75;;;;;;;;;;6306362;22;20029;-84
2023/05/28 07:32:03;;;;;;;7.18;3.38;;;;;;;;;;6281032;22;20098;-84
2023/05/28 07:34:29;;;;;;;10.70;4.00;;;;;;;;;;6280687;22;20019;-84
2023/05/28 07:36:56;;;;;;;9.63;3.58;;;;;;;;;;6306106;22;20090;-84
2023/05/28 07:39:22;;;;;;;9.57;4.53;;;;;;;;;;6280924;22;20015;-85
2023/05/28 07:41:48;;;;;;;8.75;3.53;;;;;;;;;;6280582;22;20069;-84
2023/05/28 07:44:17;;;;;;;11.73;4.05;;;;;;;;;;6280868;22;20064;-85
2023/05/28 07:46:43;;;;;;;9.43;3.72;;;;;;;;;;6280871;22;20094;-85
2023/05/28 07:49:09;;;;;;;8.40;3.60;;;;;;;;;;6305982;22;20019;-84
2023/05/28 07:51:36;;;;;;;11.02;4.10;;;;;;;;;;6280733;22;20037;-85
2023/05/28 07:54:02;;;;;;;8.68;3.55;;;;;;;;;;6280829;22;20015;-85
2023/05/28 07:56:28;;;;;;;8.63;3.30;;;;;;;;;;6280352;22;20015;-84
2023/05/28 07:58:54;;;;;;;10.52;3.92;;;;;;;;;;6280789;22;20018;-85
2023/05/28 08:01:21;;;;;;;6.97;3.33;;;;;;;;;;6280463;22;20015;-84
2023/05/28 08:03:50;;;;;;;11.20;4.20;;;;;;;;;;6306252;22;20100;-85
2023/05/28 08:06:17;;;;;;;7.88;3.92;;;;;;;;;;6280546;22;20027;-84
2023/05/28 08:08:44;;;;;;;9.32;4.00;;;;;;;;;;6306168;22;20337;-83
2023/05/28 08:11:13;;;;;;;7.82;3.50;;;;;;;;;;6281864;22;20015;-85
2023/05/28 08:13:39;;;;;;;7.70;3.65;;;;;;;;;;6282323;22;20015;-85
2023/05/28 08:16:05;;;;;;;8.88;4.22;;;;;;;;;;6308133;22;20086;-85
2023/05/28 08:18:32;;;;;;;6.53;3.13;;;;;;;;;;6282484;22;20019;-85
2023/05/28 08:20:58;;;;;;;9.75;3.42;;;;;;;;;;6282232;22;20050;-85
2023/05/28 08:23:24;;;;;;;8.70;4.30;;;;;;;;;;6282653;22;20020;-84
2023/05/28 08:25:51;;;;;;;6.80;3.47;;;;;;;;;;6282656;22;20100;-84
2023/05/28 08:28:18;;;;;;;9.40;3.58;;;;;;;;;;6282051;22;20047;-84
2023/05/28 08:30:44;;;;;;;6.97;3.08;;;;;;;;;;6281894;22;20027;-84
2023/05/28 08:33:10;;;;;;;7.90;3.80;;;;;;;;;;6282007;22;20041;-84
2023/05/28 08:35:36;;;;;;;7.93;3.70;;;;;;;;;;6282055;22;20027;-84
2023/05/28 08:38:08;;;;;;;6.10;3.05;;;;;;;;;;6281901;22;20018;-84
2023/05/28 08:40:37;;;;;;;8.05;3.55;;;;;;;;;;6282469;22;20090;-84
2023/05/28 08:43:03;;;;;;;8.13;3.65;;;;;;;;;;6307894;22;20090;-84
2023/05/28 08:45:30;;;;;;;8.57;3.88;;;;;;;;;;6307780;22;20015;-85
2023/05/28 08:47:56;;;;;;;9.93;4.28;;;;;;;;;;6282049;22;20015;-84
2023/05/28 08:50:24;;;;;;;9.63;4.18;;;;;;;;;;6281983;22;20019;-84
2023/05/28 08:52:51;;;;;;;7.35;3.47;;;;;;;;;;6282184;22;20463;-85
2023/05/28 08:55:17;;;;;;;7.72;3.55;;;;;;;;;;6281467;22;20023;-84
2023/05/28 08:57:46;;;;;;;8.35;3.53;;;;;;;;;;6281630;22;20015;-84
2023/05/28 09:00:12;;;;;;;7.68;3.50;;;;;;;;;;6282902;22;20019;-85
2023/05/28 09:02:39;;;;;;;7.50;3.45;;;;;;;;;;6307628;22;20026;-85
2023/05/28 09:05:05;;;;;;;8.23;3.72;;;;;;;;;;6308639;22;20070;-85
2023/05/28 09:07:32;;;;;;;6.93;3.65;;;;;;;;;;6281665;22;20019;-85
2023/05/28 09:09:58;;;;;;;11.40;3.97;;;;;;;;;;6281776;22;20020;-84
2023/05/28 09:12:26;;;;;;;10.63;3.92;;;;;;;;;;6281945;22;20076;-84
2023/05/28 09:14:53;;;;;;;9.93;4.00;;;;;;;;;;6281345;22;20022;-85
2023/05/28 09:17:35;;;;;;;8.48;4.22;;;;;;;;;;6308513;22;20019;-85
2023/05/28 09:20:10;;;;;;;6.65;3.15;;;;;;;;;;6281669;22;20019;-84
2023/05/28 09:22:36;;;;;;;;;;;;;;;;;;6282693;22;20015;-84
2023/05/28 09:25:03;;;;;;;9.77;3.17;;;;;;;;;;6307438;22;19981;-85
2023/05/28 09:27:30;;;;;;;7.28;3.40;;;;;;;;;;6307428;22;20449;-85
2023/05/28 09:29:56;;;;;;;7.88;4.45;;;;;;;;;;6308886;22;20019;-84
2023/05/28 09:32:22;;;;;;;7.40;3.40;;;;;;;;;;6307295;22;20015;-85
2023/05/28 09:34:51;;;;;;;7.85;3.22;;;;;;;;;;6281637;22;20072;-84
2023/05/28 09:37:18;;;;;;;9.60;3.78;;;;;;;;;;6307670;22;20019;-84
2023/05/28 09:39:44;;;;;;;8.40;3.28;;;;;;;;;;6307477;22;20069;-85
2023/05/28 09:42:10;;;;;;;5.63;2.92;;;;;;;;;;6307292;22;20023;-85
2023/05/28 09:44:37;;;;;;;6.97;3.67;;;;;;;;;;6281674;22;20051;-85
2023/05/28 09:47:16;;;;;;;5.70;3.28;;;;;;;;;;6307232;22;20045;-85
2023/05/28 09:49:44;;;;;;;6.90;3.38;;;;;;;;;;6307203;22;20019;-84
2023/05/28 09:52:10;;;;;;;6.18;3.30;;;;;;;;;;6307610;22;20337;-84
2023/05/28 09:54:36;;;;;;;8.10;3.83;;;;;;;;;;6308781;22;20023;-84
2023/05/28 09:57:03;;;;;;;5.72;3.88;;;;;;;;;;6281405;22;20023;-85
2023/05/28 09:59:32;;;;;;;7.13;3.30;;;;;;;;;;6281184;22;20012;-84
2023/05/28 10:02:05;;;;;;;8.02;4.25;;;;;;;;;;6306962;22;20445;-84
2023/05/28 10:04:36;;;;;;;6.00;4.05;;;;;;;;;;6281564;22;20450;-84
2023/05/28 10:07:04;;;;;;;4.90;3.90;;;;;;;;;;6282199;22;20021;-84
2023/05/28 10:09:32;;;;;;;5.35;3.92;;;;;;;;;;6307965;22;20015;-84
2023/05/28 10:12:10;;;;;;;6.75;3.70;;;;;;;;;;6282175;22;20429;-84
2023/05/28 10:14:37;;;;;;;6.88;3.60;;;;;;;;;;6281910;22;20015;-84
2023/05/28 10:17:03;;;;;;;6.32;3.78;;;;;;;;;;6306961;22;20468;-84
2023/05/28 10:19:30;;;;;;;6.80;4.07;;;;;;;;;;6306859;22;20023;-84
2023/05/28 10:21:56;;;;;;;7.15;3.70;;;;;;;;;;6281058;22;20019;-84
2023/05/28 10:24:22;;;;;;;8.38;4.60;;;;;;;;;;6307207;22;20011;-84
2023/05/28 10:26:49;;;;;;;5.32;3.67;;;;;;;;;;6281231;22;20073;-84
2023/05/28 10:29:15;;;;;;;6.47;3.60;;;;;;;;;;6281037;22;20341;-84
2023/05/28 10:31:41;;;;;;;6.05;3.30;;;;;;;;;;6281425;22;20068;-84
2023/05/28 10:34:17;;;;;;;7.65;3.25;;;;;;;;;;6306948;22;20026;-84
2023/05/28 10:36:50;;;;;;;6.38;3.42;;;;;;;;;;6280982;22;20437;-84
2023/05/28 10:39:16;;;;;;;6.15;3.40;;;;;;;;;;6280821;22;20333;-82
2023/05/28 10:41:42;;;;;;;6.40;3.60;;;;;;;;;;6307686;22;20023;-83
2023/05/28 10:44:08;;;;;;;5.47;3.47;;;;;;;;;;6306796;22;20015;-83
2023/05/28 10:46:41;;;;;;;6.40;2.95;;;;;;;;;;6306659;22;20051;-83
2023/05/28 10:49:12;;;;;;;7.47;3.60;;;;;;;;;;6306657;22;20326;-83
2023/05/28 10:51:45;;;;;;;7.43;4.35;;;;;;;;;;6280840;22;20026;-83
2023/05/28 10:54:15;;;;;;;5.50;3.03;;;;;;;;;;6281156;22;20015;-83
2023/05/28 10:57:01;;;;;;;4.53;3.35;;;;;;;;;;6281308;22;20015;-83
2023/05/28 10:59:43;;;;;;;7.32;3.97;;;;;;;;;;6280669;22;20054;-84
2023/05/28 11:02:10;;;;;;;5.85;3.70;;;;;;;;;;6307645;22;20079;-83
2023/05/28 11:04:36;;;;;;;8.38;3.75;;;;;;;;;;6280816;22;20019;-83
2023/05/28 11:07:03;;;;;;;8.60;2.80;;;;;;;;;;6280935;22;20015;-83
2023/05/28 11:09:29;;;;;;;4.88;3.17;;;;;;;;;;6306744;22;20023;-82
2023/05/28 11:12:00;;;;;;;6.78;3.13;;;;;;;;;;6306410;22;20464;-83
2023/05/28 11:14:30;;;;;;;5.45;2.85;;;;;;;;;;6281680;22;20051;-82
2023/05/28 11:16:56;;;;;;;6.30;3.10;;;;;;;;;;6307533;22;20015;-83
2023/05/28 11:19:22;;;;;;;5.18;3.35;;;;;;;;;;6280682;22;20445;-83
2023/05/28 11:21:57;;;;;;;6.25;3.10;;;;;;;;;;6306502;22;20328;-83
2023/05/28 11:24:23;;;;;;;6.50;2.92;;;;;;;;;;6280318;22;20197;-83
2023/05/28 11:26:52;;;;;;;4.30;2.63;;;;;;;;;;6306709;22;20095;-83
2023/05/28 11:29:18;;;;;;;6.68;3.17;;;;;;;;;;6306486;22;20037;-83
2023/05/28 11:31:44;;;;;;;6.63;3.45;;;;;;;;;;6306444;22;20069;-83
2023/05/28 11:34:11;;;;;;;7.57;3.00;;;;;;;;;;6281638;22;20080;-83
2023/05/28 11:36:45;;;;;;;4.43;2.97;;;;;;;;;;6306386;22;20076;-83
2023/05/28 11:39:12;;;;;;;;;;;;;;;;;;6306848;22;20019;-83
2023/05/28 11:41:38;;;;;;;6.00;2.80;;;;;;;;;;6306357;22;19990;-83
2023/05/28 11:44:23;;;;;;;5.78;2.85;;;;;;;;;;6281643;22;20016;-83
2023/05/28 11:46:49;;;;;;;;;;;;;;;;;;6284181;22;20437;-83
2023/05/28 11:49:15;;;;;;;4.07;2.90;;;;;;;;;;6309340;22;20255;-82
2023/05/28 11:51:41;;;;;;;7.47;2.50;;;;;;;;;;6283688;22;20027;-82
2023/05/28 11:54:07;;;;;;;4.35;2.50;;;;;;;;;;6282481;22;20076;-84
2023/05/28 11:56:35;;;;;;;4.68;2.58;;;;;;;;;;6308268;22;20015;-83
2023/05/28 11:59:02;;;;;;;5.05;2.60;;;;;;;;;;6282651;22;20015;-83
2023/05/28 12:01:33;;;;;;;4.05;2.80;;;;;;;;;;6308164;22;20015;-83
2023/05/28 12:04:05;;;;;;;5.60;3.25;;;;;;;;;;6308577;22;20018;-83
2023/05/28 12:06:33;;;;;;;5.72;2.78;;;;;;;;;;6309077;22;20019;-83
2023/05/28 12:09:03;;;;;;;6.20;3.22;;;;;;;;;;6307695;22;20019;-83
2023/05/28 12:11:29;;;;;;;6.63;3.35;;;;;;;;;;6282659;22;20022;-83
2023/05/28 12:13:56;;;;;;;4.47;2.63;;;;;;;;;;6282338;22;20031;-83
2023/05/28 12:16:22;;;;;;;3.15;2.50;;;;;;;;;;6282185;22;20478;-82
2023/05/28 12:18:48;;;;;;;3.53;2.28;;;;;;;;;;6282526;22;20015;-83
2023/05/28 12:21:18;;;;;;;5.20;2.72;;;;;;;;;;6283308;22;20018;-83
2023/05/28 12:23:44;;;;;;;4.40;2.47;;;;;;;;;;6307928;22;20017;-83
2023/05/28 12:26:14;;;;;;;3.67;2.35;;;;;;;;;;6283211;22;20020;-82
2023/05/28 12:28:41;;;;;;;3.50;2.03;;;;;;;;;;6307877;22;20019;-83
2023/05/28 12:31:08;;;;;;;6.93;2.47;;;;;;;;;;6283314;22;20044;-82
2023/05/28 12:33:34;;;;;;;3.08;2.70;;;;;;;;;;6307907;22;20015;-82
2023/05/28 12:36:00;;;;;;;3.03;2.22;;;;;;;;;;6307831;22;20022;-82
2023/05/28 12:38:27;;;;;;;2.55;1.88;;;;;;;;;;6281900;22;20019;-82
2023/05/28 12:40:53;;;;;;;2.10;1.70;;;;;;;;;;6308146;22;20064;-82
2023/05/28 12:43:21;;;;;;;2.70;1.50;;;;;;;;;;6307826;22;20433;-83
2023/05/28 12:45:47;;;;;;;2.28;1.92;;;;;;;;;;6281931;22;20023;-83
2023/05/28 12:48:13;;;;;;;1.85;1.52;;;;;;;;;;6308135;22;20058;-83
2023/05/28 12:50:39;;;;;;;2.13;1.80;;;;;;;;;;6307738;22;20015;-83
2023/05/28 12:53:05;;;;;;;1.88;1.75;;;;;;;;;;6282874;22;20015;-83
2023/05/28 12:55:32;;;;;;;1.80;1.70;;;;;;;;;;6307544;22;20058;-83
2023/05/28 12:57:58;;;;;;;2.20;1.70;;;;;;;;;;6307589;22;20019;-83
2023/05/28 13:00:24;;;;;;;2.85;1.70;;;;;;;;;;6282850;22;20098;-83
2023/05/28 13:02:51;;;;;;;3.35;2.03;;;;;;;;;;6307642;22;20015;-83
2023/05/28 13:05:17;;;;;;;2.60;2.05;;;;;;;;;;6308565;22;20152;-83
2023/05/28 13:07:43;;;;;;;1.98;1.73;;;;;;;;;;6308499;22;20440;-83
2023/05/28 13:10:10;;;;;;;2.45;1.90;;;;;;;;;;6281968;22;20432;-82
2023/05/28 13:12:37;;;;;;;2.13;2.03;;;;;;;;;;6307559;22;20539;-84
2023/05/28 13:15:07;;;;;;;2.85;2.47;;;;;;;;;;6307344;22;20449;-83
2023/05/28 13:17:33;;;;;;;3.00;2.80;;;;;;;;;;6282002;22;20023;-83
2023/05/28 13:20:00;;;;;;;2.15;1.95;;;;;;;;;;6307587;22;20046;-83
2023/05/28 13:22:26;;;;;;;2.33;1.90;;;;;;;;;;6309038;22;20019;-83
2023/05/28 13:24:52;;;;;;;2.78;1.88;;;;;;;;;;6307385;22;20015;-84
2023/05/28 13:27:18;;;;;;;4.65;1.75;;;;;;;;;;6281576;22;20054;-82
2023/05/28 13:29:44;;;;;;;1.67;1.58;;;;;;;;;;6308345;22;20161;-83
2023/05/28 13:32:10;;;;;;;3.13;1.73;;;;;;;;;;6281599;22;20050;-82
2023/05/28 13:34:39;;;;;;;2.88;1.80;;;;;;;;;;6281651;22;20078;-83
2023/05/28 13:37:05;;;;;;;3.13;1.58;;;;;;;;;;6308867;22;20094;-82
2023/05/28 13:39:31;;;;;;;2.25;2.05;;;;;;;;;;6307052;22;20016;-83
2023/05/28 13:41:58;;;;;;;2.47;2.08;;;;;;;;;;6281669;22;20064;-83
2023/05/28 13:44:24;;;;;;;2.60;2.40;;;;;;;;;;6307202;22;20018;-83
2023/05/28 13:46:50;;;;;;;2.33;2.08;;;;;;;;;;6306752;22;20072;-84
2023/05/28 13:49:16;;;;;;;2.25;2.05;;;;;;;;;;6307450;22;20069;-84
2023/05/28 13:51:43;;;;;;;1.90;1.80;;;;;;;;;;6307171;22;20019;-83
2023/05/28 13:54:09;;;;;;;2.42;1.77;;;;;;;;;;6281270;22;20019;-83
2023/05/28 13:56:35;;;;;;;2.58;1.90;;;;;;;;;;6281716;22;20015;-83
2023/05/28 13:59:02;;;;;;;3.03;1.85;;;;;;;;;;6281663;22;20012;-83
2023/05/28 14:01:28;;;;;;;2.00;1.77;;;;;;;;;;6281328;22;20026;-83
2023/05/28 14:03:54;;;;;;;2.35;2.00;;;;;;;;;;6281304;22;20341;-83
2023/05/28 14:06:20;;;;;;;2.60;1.92;;;;;;;;;;6281244;22;20016;-83
2023/05/28 14:08:46;;;;;;;3.42;1.90;;;;;;;;;;6306596;22;20058;-83
2023/05/28 14:11:12;;;;;;;3.17;1.52;;;;;;;;;;6281636;22;20015;-83
2023/05/28 14:13:38;;;;;;;4.45;2.28;;;;;;;;;;6281130;22;20016;-83
2023/05/28 14:16:04;;;;;;;4.25;1.65;;;;;;;;;;6281001;22;20026;-83
2023/05/28 14:18:30;;;;;;;2.47;1.70;;;;;;;;;;6307814;22;20088;-82
2023/05/28 14:20:56;;;;;;;2.35;1.40;;;;;;;;;;6281111;22;20015;-82
2023/05/28 14:23:22;;;;;;;2.85;1.38;;;;;;;;;;6281554;22;20019;-83
2023/05/28 14:25:49;;;;;;;2.75;1.60;;;;;;;;;;6282144;22;20330;-83
2023/05/28 14:28:15;;;;;;;3.42;1.75;;;;;;;;;;6281267;22;20104;-83
2023/05/28 14:30:41;;;;;;;2.97;1.30;;;;;;;;;;6281326;22;20022;-84
2023/05/28 14:33:07;;;;;;;4.15;1.42;;;;;;;;;;6307778;22;20019;-83
2023/05/28 14:35:33;;;;;;;3.05;1.33;;;;;;;;;;6280918;22;20449;-83